Time;durP1;ratioP1;P1;durP2;ratioP2;P2;SDS_P1;SDS_P2;PMS_P1;PMS_P2;Temp;Humidity;BMP_temperature;BMP_pressure;BME280_temperature;BME280_humidity;BME280_pressure;Samples;Min_cycle;Max_cycle;Signal;HPM_P1;HPM_P2
2023/03/01 00:01:10;;;;;;;2.27;1.97;;;;;;;5.95;nan;-23982.84;5052002;28;20174;-68
2023/03/01 00:03:37;;;;;;;2.60;2.40;;;;;;;5.98;nan;-23983.72;5050373;28;20221;-68
2023/03/01 00:06:03;;;;;;;3.53;2.47;;;;;;;6.00;nan;-23984.41;5051588;28;20175;-69
2023/03/01 00:08:29;;;;;;;2.97;2.23;;;;;;;5.62;nan;-23973.75;5051537;28;20181;-69
2023/03/01 00:11:04;;;;;;;2.40;2.20;;;;;;;6.04;nan;-23985.41;5051557;28;20585;-69
2023/03/01 00:13:29;;;;;;;2.83;1.80;;;;;;;5.95;nan;-23983.00;5051648;28;20189;-68
2023/03/01 00:15:55;;;;;;;2.83;2.07;;;;;;;6.00;nan;-23984.41;5051336;28;20167;-68
2023/03/01 00:18:20;;;;;;;2.20;1.77;;;;;;;5.65;nan;-23974.59;5051324;28;20669;-67
2023/03/01 00:20:53;;;;;;;2.17;1.83;;;;;;;5.75;nan;-23977.44;5051086;28;20186;-68
2023/03/01 00:23:19;;;;;;;3.17;2.10;;;;;;;6.00;nan;-23984.41;5051265;28;20255;-67
2023/03/01 00:25:44;;;;;;;2.93;1.93;;;;;;;6.06;nan;-23986.13;5050587;28;20171;-67
2023/03/01 00:28:10;;;;;;;2.47;2.00;;;;;;;6.03;nan;-23985.13;5049895;28;20209;-68
2023/03/01 00:30:35;;;;;;;1.93;1.83;;;;;;;6.03;nan;-23985.28;5051265;28;20265;-68
2023/03/01 00:33:01;;;;;;;1.70;1.60;;;;;;;6.20;nan;-23990.09;5049809;28;20630;-67
2023/03/01 00:35:26;;;;;;;2.30;2.07;;;;;;;5.83;nan;-23979.59;5050715;28;20237;-68
2023/03/01 00:37:57;;;;;;;3.03;2.33;;;;;;;6.08;nan;-23986.69;5051034;28;20699;-67
2023/03/01 00:40:23;;;;;;;4.00;1.80;;;;;;;5.91;nan;-23981.88;5051246;28;20639;-67
2023/03/01 00:42:49;;;;;;;1.90;1.67;;;;;;;6.18;nan;-23989.53;5051095;28;20245;-68
2023/03/01 00:45:14;;;;;;;2.60;2.00;;;;;;;5.92;nan;-23982.16;5051116;28;20179;-68
2023/03/01 00:47:40;;;;;;;1.70;1.60;;;;;;;6.11;nan;-23987.53;5051016;28;20179;-67
2023/03/01 00:50:06;;;;;;;2.30;2.10;;;;;;;6.25;nan;-23991.38;5050842;28;20621;-67
2023/03/01 00:52:31;;;;;;;3.57;1.83;;;;;;;6.12;nan;-23987.81;5051230;28;20167;-67
2023/03/01 00:54:57;;;;;;;2.10;1.90;;;;;;;5.96;nan;-23983.13;5050557;28;20313;-68
2023/03/01 00:57:23;;;;;;;2.27;2.07;;;;;;;6.18;nan;-23989.38;5050811;28;20197;-68
2023/03/01 00:59:48;;;;;;;2.50;2.03;;;;;;;5.70;nan;-23975.88;5050532;28;20190;-68
2023/03/01 01:02:14;;;;;;;3.67;1.83;;;;;;;5.96;nan;-23983.28;5053019;28;20189;-67
2023/03/01 01:04:39;;;;;;;3.07;2.30;;;;;;;6.04;nan;-23985.41;5053913;28;20333;-68
2023/03/01 01:07:05;;;;;;;2.27;2.03;;;;;;;6.16;nan;-23988.81;5054411;28;20175;-68
2023/03/01 01:09:31;;;;;;;1.90;1.80;;;;;;;6.12;nan;-23987.81;5054470;28;20229;-66
2023/03/01 01:11:56;;;;;;;2.80;2.33;;;;;;;6.06;nan;-23986.13;5054447;28;20516;-67
2023/03/01 01:14:22;;;;;;;3.90;2.40;;;;;;;6.11;nan;-23987.41;5054436;28;20229;-68
2023/03/01 01:16:48;;;;;;;2.07;1.90;;;;;;;6.19;nan;-23989.69;5054098;28;20237;-67
2023/03/01 01:19:14;;;;;;;2.13;1.80;;;;;;;6.20;nan;-23990.09;5054321;28;20525;-66
2023/03/01 01:21:42;;;;;;;2.90;2.23;;;;;;;5.90;nan;-23981.56;5054305;28;20175;-67
2023/03/01 01:24:08;;;;;;;2.07;1.80;;;;;;;6.18;nan;-23989.53;5054204;28;20606;-68
2023/03/01 01:26:34;;;;;;;2.23;2.00;;;;;;;6.15;nan;-23988.69;5053821;28;20261;-69
2023/03/01 01:29:01;;;;;;;2.07;1.83;;;;;;;5.85;nan;-23980.16;5054134;28;20560;-67
2023/03/01 01:31:27;;;;;;;3.40;2.20;;;;;;;6.13;nan;-23987.97;5052944;28;20278;-67
2023/03/01 01:33:54;;;;;;;2.50;2.30;;;;;;;6.12;nan;-23987.81;5053733;28;20232;-67
2023/03/01 01:36:19;;;;;;;3.20;2.33;;;;;;;6.05;nan;-23985.84;5054104;28;20301;-68
2023/03/01 01:38:45;;;;;;;1.97;1.77;;;;;;;5.75;nan;-23977.31;5053823;28;20214;-68
2023/03/01 01:41:12;;;;;;;2.53;2.33;;;;;;;6.09;nan;-23986.97;5053783;28;20179;-68
2023/03/01 01:43:44;;;;;;;2.40;1.90;;;;;;;6.25;nan;-23991.22;5053633;28;20171;-68
2023/03/01 01:46:21;;;;;;;2.37;1.80;;;;;;;5.88;nan;-23980.88;5052151;28;20473;-68
2023/03/01 01:48:52;;;;;;;2.40;1.80;;;;;;;6.31;nan;-23992.94;5053002;28;20182;-68
2023/03/01 01:51:23;;;;;;;3.13;2.20;;;;;;;6.13;nan;-23987.97;5053850;28;20170;-67
2023/03/01 01:53:54;;;;;;;2.77;2.10;;;;;;;5.97;nan;-23983.41;5054500;28;20221;-67
2023/03/01 01:56:21;;;;;;;2.63;2.43;;;;;;;5.76;nan;-23977.75;5053504;28;20186;-67
2023/03/01 01:58:47;;;;;;;2.17;1.97;;;;;;;5.95;nan;-23982.84;5053325;28;20713;-67
2023/03/01 02:01:13;;;;;;;2.73;2.30;;;;;;;5.95;nan;-23982.84;5053995;28;20257;-67
2023/03/01 02:03:42;;;;;;;2.30;2.10;;;;;;;6.21;nan;-23990.38;5053242;28;20269;-67
2023/03/01 02:06:30;;;;;;;2.40;2.13;;;;;;;5.85;nan;-23980.16;5053282;28;20167;-67
2023/03/01 02:09:04;;;;;;;2.73;2.30;;;;;;;6.00;nan;-23984.41;5053726;28;20171;-65
2023/03/01 02:11:32;;;;;;;5.07;2.47;;;;;;;5.85;nan;-23980.16;5053368;28;20197;-67
2023/03/01 02:13:57;;;;;;;2.60;2.07;;;;;;;5.91;nan;-23981.72;5053381;28;20199;-67
2023/03/01 02:16:23;;;;;;;3.30;2.20;;;;;;;6.18;nan;-23989.53;5052888;28;20707;-67
2023/03/01 02:18:50;;;;;;;2.50;2.07;;;;;;;5.94;nan;-23982.72;5052946;28;20217;-67
2023/03/01 02:21:26;;;;;;;3.30;2.17;;;;;;;5.91;nan;-23981.72;5072617;28;20250;-67
2023/03/01 02:23:55;;;;;;;2.87;1.90;;;;;;;6.04;nan;-23985.41;5072321;28;20598;-67
2023/03/01 02:26:28;;;;;;;2.67;2.13;;;;;;;6.08;nan;-23986.56;5072300;28;20539;-68
2023/03/01 02:28:54;;;;;;;2.33;2.07;;;;;;;6.19;nan;-23989.69;5072087;28;20617;-68
2023/03/01 02:34:06;;;;;;;3.73;1.93;;;;;;;6.10;nan;-23987.25;5072032;28;20204;-67
2023/03/01 02:36:37;;;;;;;2.20;2.00;;;;;;;6.02;nan;-23984.97;5072374;28;20174;-67
2023/03/01 02:39:06;;;;;;;2.07;1.90;;;;;;;5.78;nan;-23978.31;5072529;28;20178;-67
2023/03/01 02:41:35;;;;;;;2.70;2.03;;;;;;;5.78;nan;-23978.31;5072515;28;20170;-67
2023/03/01 02:44:02;;;;;;;2.77;2.17;;;;;;;5.83;nan;-23979.59;5072401;28;20185;-67
2023/03/01 02:46:27;;;;;;;2.30;2.10;;;;;;;5.63;nan;-23974.03;5072084;28;20550;-67
2023/03/01 02:48:56;;;;;;;2.43;2.00;;;;;;;5.87;nan;-23980.59;5071267;28;20185;-68
2023/03/01 02:51:33;;;;;;;3.10;2.47;;;;;;;6.07;nan;-23986.25;5071432;28;20558;-68
2023/03/01 02:54:13;;;;;;;1.67;1.57;;;;;;;6.08;nan;-23986.69;5073142;28;20251;-67
2023/03/01 02:56:40;;;;;;;2.43;2.23;;;;;;;5.79;nan;-23978.44;5070545;28;20762;-68
2023/03/01 02:59:06;;;;;;;2.67;1.83;;;;;;;5.89;nan;-23981.28;5071918;28;20170;-67
2023/03/01 03:01:37;;;;;;;1.70;1.60;;;;;;;5.81;nan;-23979.00;5072212;28;20197;-68
2023/03/01 03:04:07;;;;;;;2.27;2.00;;;;;;;5.95;nan;-23982.84;5072111;28;20598;-67
2023/03/01 03:06:33;;;;;;;2.60;1.90;;;;;;;5.74;nan;-23977.03;5072363;28;20170;-68
2023/03/01 03:08:59;;;;;;;1.40;1.30;;;;;;;5.87;nan;-23980.72;5072038;28;20170;-66
2023/03/01 03:11:25;;;;;;;2.70;2.03;;;;;;;5.94;nan;-23982.72;5072059;28;20269;-68
2023/03/01 03:13:51;;;;;;;1.80;1.70;;;;;;;5.71;nan;-23976.16;5071805;28;20178;-68
2023/03/01 03:16:17;;;;;;;2.00;1.80;;;;;;;5.72;nan;-23976.59;5072068;28;20256;-67
2023/03/01 03:18:43;;;;;;;1.80;1.70;;;;;;;5.95;nan;-23982.84;5072041;28;20261;-67
2023/03/01 03:21:10;;;;;;;2.20;2.00;;;;;;;5.64;nan;-23974.19;5072013;28;20334;-67
2023/03/01 03:23:36;;;;;;;2.80;2.10;;;;;;;5.69;nan;-23975.59;5071675;28;20637;-67
2023/03/01 03:26:04;;;;;;;2.23;1.97;;;;;;;6.08;nan;-23986.56;5071991;28;20253;-68
2023/03/01 03:28:30;;;;;;;2.20;2.00;;;;;;;6.02;nan;-23984.97;5071705;28;20178;-67
2023/03/01 03:30:56;;;;;;;2.60;1.93;;;;;;;6.12;nan;-23987.69;5071457;28;20180;-67
2023/03/01 03:33:22;;;;;;;2.37;2.00;;;;;;;6.10;nan;-23987.25;5071759;28;20178;-67
2023/03/01 03:35:49;;;;;;;2.50;2.17;;;;;;;6.07;nan;-23986.25;5071589;28;20193;-67
2023/03/01 03:38:17;;;;;;;1.67;1.57;;;;;;;6.16;nan;-23988.81;5071676;28;20180;-68
2023/03/01 03:41:03;;;;;;;3.07;2.37;;;;;;;6.11;nan;-23987.53;5071817;28;20347;-67
2023/03/01 03:43:30;;;;;;;3.47;2.37;;;;;;;5.78;nan;-23978.31;5072122;28;20209;-68
2023/03/01 03:45:56;;;;;;;2.50;2.03;;;;;;;6.05;nan;-23985.84;5071789;28;20199;-68
2023/03/01 03:48:22;;;;;;;3.67;2.60;;;;;;;5.24;nan;-23963.09;5071581;28;20181;-68
2023/03/01 03:50:51;;;;;;;3.17;2.23;;;;;;;6.16;nan;-23988.97;5071690;28;20162;-67
2023/03/01 03:53:17;;;;;;;3.17;2.53;;;;;;;6.09;nan;-23986.84;5070132;28;20174;-67
2023/03/01 03:55:44;;;;;;;2.93;2.43;;;;;;;5.98;nan;-23983.84;5071385;28;20229;-67
2023/03/01 03:58:10;;;;;;;4.10;2.60;;;;;;;6.08;nan;-23986.69;5072079;28;20205;-67
2023/03/01 04:00:41;;;;;;;3.27;2.40;;;;;;;6.01;nan;-23984.69;5072082;28;20231;-68
2023/03/01 04:03:08;;;;;;;2.33;2.13;;;;;;;5.75;nan;-23977.44;5071730;28;20260;-68
2023/03/01 04:05:34;;;;;;;2.03;1.67;;;;;;;5.98;nan;-23983.84;5070770;28;20265;-67
2023/03/01 04:08:02;;;;;;;3.33;2.33;;;;;;;5.82;nan;-23979.16;5070555;28;20719;-67
2023/03/01 04:10:29;;;;;;;2.23;1.93;;;;;;;5.60;nan;-23973.03;5071756;28;20185;-67
2023/03/01 04:12:58;;;;;;;3.03;2.03;;;;;;;5.85;nan;-23980.16;5071777;28;20162;-66
2023/03/01 04:15:25;;;;;;;2.17;1.97;;;;;;;5.51;nan;-23970.47;5071756;28;20202;-67
2023/03/01 04:17:52;;;;;;;2.23;2.03;;;;;;;5.78;nan;-23978.16;5071530;28;20252;-67
2023/03/01 04:20:24;;;;;;;2.53;2.33;;;;;;;5.78;nan;-23978.16;5052432;28;20631;-68
2023/03/01 04:23:10;;;;;;;2.13;1.90;;;;;;;5.66;nan;-23974.91;5076905;28;20194;-68
2023/03/01 04:25:40;;;;;;;2.17;1.90;;;;;;;5.72;nan;-23976.47;5044495;28;20181;-68
2023/03/01 04:28:06;;;;;;;2.23;1.93;;;;;;;5.84;nan;-23979.88;5044673;28;20622;-67
2023/03/01 04:30:35;;;;;;;2.00;1.80;;;;;;;5.75;nan;-23977.44;5043573;28;20292;-67
2023/03/01 04:33:11;;;;;;;2.00;1.90;;;;;;;5.87;nan;-23980.59;5044261;28;20178;-67
2023/03/01 04:35:37;;;;;;;2.53;2.03;;;;;;;5.77;nan;-23978.03;5043940;28;20224;-68
2023/03/01 04:38:04;;;;;;;2.57;2.37;;;;;;;5.81;nan;-23979.00;5047073;28;20189;-68
2023/03/01 04:40:29;;;;;;;2.60;1.77;;;;;;;5.51;nan;-23970.47;5048879;28;20649;-68
2023/03/01 04:42:55;;;;;;;1.97;1.83;;;;;;;5.42;nan;-23967.94;5048761;28;20179;-67
2023/03/01 04:45:21;;;;;;;2.07;1.80;;;;;;;5.60;nan;-23973.03;5047864;28;20243;-67
2023/03/01 04:47:46;;;;;;;3.27;2.30;;;;;;;5.73;nan;-23976.88;5052970;28;20567;-68
2023/03/01 04:50:15;;;;;;;3.40;2.40;;;;;;;5.77;nan;-23977.88;5054558;28;20640;-68
2023/03/01 04:52:42;;;;;;;2.20;2.00;;;;;;;5.24;nan;-23963.09;5053792;28;20660;-66
2023/03/01 04:55:08;;;;;;;3.27;2.30;;;;;;;5.59;nan;-23972.91;5053927;28;20311;-69
2023/03/01 04:57:34;;;;;;;2.93;2.33;;;;;;;5.10;nan;-23959.13;5055604;28;20170;-67
2023/03/01 04:59:59;;;;;;;3.47;2.47;;;;;;;5.44;nan;-23968.63;5054178;28;20186;-67
2023/03/01 05:02:24;;;;;;;3.07;2.30;;;;;;;5.58;nan;-23972.47;5054266;28;20218;-68
2023/03/01 05:04:50;;;;;;;2.77;2.47;;;;;;;5.39;nan;-23967.22;5054673;28;20173;-69
2023/03/01 05:07:19;;;;;;;2.30;2.10;;;;;;;5.59;nan;-23972.91;5054467;28;20193;-67
2023/03/01 05:09:48;;;;;;;1.87;1.67;;;;;;;5.70;nan;-23975.88;5052954;28;20231;-67
2023/03/01 05:12:14;;;;;;;2.93;2.73;;;;;;;5.65;nan;-23974.47;5054208;28;20684;-68
2023/03/01 05:14:41;;;;;;;2.00;1.80;;;;;;;5.31;nan;-23965.09;5052331;28;20673;-68
2023/03/01 05:17:07;;;;;;;2.27;2.07;;;;;;;5.32;nan;-23965.38;5052736;28;20183;-68
2023/03/01 05:19:33;;;;;;;2.50;2.30;;;;;;;5.50;nan;-23970.34;5054097;28;20175;-68
2023/03/01 05:22:01;;;;;;;2.10;2.00;;;;;;;5.25;nan;-23963.38;5053796;28;20193;-68
2023/03/01 05:24:28;;;;;;;3.00;2.27;;;;;;;5.58;nan;-23972.63;5053703;28;20249;-69
2023/03/01 05:26:54;;;;;;;3.30;2.43;;;;;;;5.17;nan;-23960.97;5053805;28;20174;-69
2023/03/01 05:29:27;;;;;;;3.33;2.37;;;;;;;5.20;nan;-23961.81;5053498;28;20240;-68
2023/03/01 05:31:54;;;;;;;3.30;2.70;;;;;;;5.18;nan;-23961.38;5053770;28;20163;-67
2023/03/01 05:34:33;;;;;;;2.63;2.30;;;;;;;5.60;nan;-23973.03;5054061;28;20248;-67
2023/03/01 05:36:59;;;;;;;2.17;2.00;;;;;;;5.32;nan;-23965.22;5053931;28;20212;-70
2023/03/01 05:39:27;;;;;;;2.20;2.10;;;;;;;5.31;nan;-23965.09;5054058;28;20165;-69
2023/03/01 05:41:54;;;;;;;3.40;2.53;;;;;;;5.45;nan;-23968.78;5055040;28;20166;-68
2023/03/01 05:44:20;;;;;;;3.13;2.70;;;;;;;5.77;nan;-23977.88;5046286;28;20210;-68
2023/03/01 05:46:45;;;;;;;3.03;2.10;;;;;;;5.73;nan;-23976.88;5044181;28;20587;-69
2023/03/01 05:49:13;;;;;;;4.23;3.03;;;;;;;5.81;nan;-23978.88;5043073;28;20179;-69
2023/03/01 05:51:39;;;;;;;2.23;2.03;;;;;;;5.79;nan;-23978.59;5048371;28;20167;-68
2023/03/01 05:54:05;;;;;;;2.33;2.10;;;;;;;5.73;nan;-23976.75;5040759;28;20222;-70
2023/03/01 05:56:34;;;;;;;5.33;3.13;;;;;;;5.81;nan;-23979.00;5036972;28;20222;-69
2023/03/01 05:59:00;;;;;;;2.93;2.57;;;;;;;5.87;nan;-23980.59;5034009;28;20183;-69
2023/03/01 06:01:25;;;;;;;3.03;2.20;;;;;;;5.90;nan;-23981.44;5033158;28;20556;-69
2023/03/01 06:03:51;;;;;;;3.40;2.33;;;;;;;5.77;nan;-23977.88;5038294;28;20190;-68
2023/03/01 06:06:16;;;;;;;2.90;2.60;;;;;;;5.51;nan;-23970.47;5041034;28;20175;-69
2023/03/01 06:08:42;;;;;;;2.50;2.17;;;;;;;5.93;nan;-23982.28;5043625;28;20191;-69
2023/03/01 06:11:07;;;;;;;2.67;2.20;;;;;;;6.05;nan;-23985.84;5038147;28;20249;-68
2023/03/01 06:13:33;;;;;;;2.33;2.10;;;;;;;5.62;nan;-23973.75;5032885;28;20164;-67
2023/03/01 06:15:58;;;;;;;2.73;2.43;;;;;;;6.11;nan;-23987.53;5032683;28;20229;-68
2023/03/01 06:18:24;;;;;;;2.37;1.80;;;;;;;6.03;nan;-23985.28;5032473;28;20576;-72
2023/03/01 06:20:54;;;;;;;2.53;1.97;;;;;;;5.93;nan;-23982.28;5032911;28;20187;-69
2023/03/01 06:23:19;;;;;;;4.37;2.60;;;;;;;6.14;nan;-23988.25;5032654;28;20190;-68
2023/03/01 06:25:45;;;;;;;4.27;2.60;;;;;;;6.02;nan;-23984.97;5033321;28;20243;-70
2023/03/01 06:28:10;;;;;;;2.40;2.20;;;;;;;5.72;nan;-23976.47;5032973;28;20183;-68
2023/03/01 06:30:35;;;;;;;2.83;2.17;;;;;;;6.00;nan;-23984.41;5032557;28;20168;-69
2023/03/01 06:33:02;;;;;;;2.23;2.03;;;;;;;6.06;nan;-23985.97;5043763;28;20187;-70
2023/03/01 06:35:30;;;;;;;3.30;2.40;;;;;;;5.82;nan;-23979.16;5042158;28;20203;-70
2023/03/01 06:37:57;;;;;;;3.17;1.97;;;;;;;6.21;nan;-23990.38;5031135;28;20182;-68
2023/03/01 06:40:23;;;;;;;3.20;2.27;;;;;;;6.19;nan;-23989.81;5032303;28;20262;-70
2023/03/01 06:42:50;;;;;;;2.57;2.37;;;;;;;6.16;nan;-23988.81;5032412;28;20643;-70
2023/03/01 06:45:16;;;;;;;3.17;2.37;;;;;;;6.15;nan;-23988.69;5032422;28;20617;-70
2023/03/01 06:47:42;;;;;;;3.13;2.60;;;;;;;6.01;nan;-23984.56;5030928;28;20214;-70
2023/03/01 06:50:08;;;;;;;2.50;2.07;;;;;;;6.24;nan;-23990.94;5032168;28;20199;-70
2023/03/01 06:52:33;;;;;;;2.03;1.90;;;;;;;6.17;nan;-23989.09;5031941;28;20179;-69
2023/03/01 06:54:59;;;;;;;3.73;2.00;;;;;;;5.98;nan;-23983.84;5031895;28;20292;-69
2023/03/01 06:57:25;;;;;;;2.20;2.00;;;;;;;6.41;nan;-23995.78;5032113;28;20694;-69
2023/03/01 06:59:51;;;;;;;2.77;1.97;;;;;;;6.49;nan;-23998.19;5032250;28;20187;-68
2023/03/01 07:02:16;;;;;;;2.47;2.27;;;;;;;6.49;nan;-23998.06;5030732;28;20211;-68
2023/03/01 07:04:42;;;;;;;3.80;2.10;;;;;;;6.50;nan;-23998.47;5030649;28;20179;-68
2023/03/01 07:07:08;;;;;;;2.33;2.00;;;;;;;6.27;nan;-23991.81;5031676;28;20678;-71
2023/03/01 07:09:34;;;;;;;2.17;1.97;;;;;;;6.58;nan;-24000.59;5031906;28;20183;-70
2023/03/01 07:12:00;;;;;;;2.70;1.93;;;;;;;6.48;nan;-23997.75;5031279;28;20187;-69
2023/03/01 07:14:25;;;;;;;2.70;2.10;;;;;;;6.57;nan;-24000.47;5031532;28;20191;-70
2023/03/01 07:16:54;;;;;;;2.93;1.93;;;;;;;6.51;nan;-23998.63;5043976;28;20691;-67
2023/03/01 07:19:20;;;;;;;2.60;2.13;;;;;;;6.70;nan;-24003.88;5051512;28;21036;-68
2023/03/01 07:21:46;;;;;;;2.93;2.47;;;;;;;6.54;nan;-23999.47;5051409;28;20221;-69
2023/03/01 07:24:12;;;;;;;3.10;2.43;;;;;;;6.08;nan;-23986.69;5050237;28;20599;-70
2023/03/01 07:26:37;;;;;;;7.43;2.53;;;;;;;6.76;nan;-24005.56;5051503;28;20189;-69
2023/03/01 07:29:05;;;;;;;3.20;2.50;;;;;;;6.72;nan;-24004.56;5051641;28;20181;-69
2023/03/01 07:31:31;;;;;;;2.47;2.17;;;;;;;6.81;nan;-24007.13;5051403;28;20179;-69
2023/03/01 07:33:57;;;;;;;3.87;2.53;;;;;;;6.74;nan;-24005.16;5051409;28;20182;-71
2023/03/01 07:36:23;;;;;;;3.13;2.57;;;;;;;6.80;nan;-24006.84;5051276;28;20689;-71
2023/03/01 07:38:49;;;;;;;2.87;2.17;;;;;;;7.03;nan;-24013.38;5052089;28;20167;-69
2023/03/01 07:41:14;;;;;;;3.53;2.90;;;;;;;7.12;nan;-24015.66;5051666;28;20597;-69
2023/03/01 07:43:40;;;;;;;5.53;2.70;;;;;;;7.29;nan;-24020.47;5050808;28;20175;-69
2023/03/01 07:46:06;;;;;;;4.10;2.93;;;;;;;7.27;nan;-24019.91;5050907;28;20186;-69
2023/03/01 07:48:32;;;;;;;3.27;2.70;;;;;;;7.50;nan;-24026.41;5051123;28;20170;-68
2023/03/01 07:50:59;;;;;;;3.03;2.70;;;;;;;7.46;nan;-24025.28;5051322;28;20613;-69
2023/03/01 07:53:25;;;;;;;3.63;2.80;;;;;;;7.43;nan;-24024.56;5050973;28;20281;-68
2023/03/01 07:55:59;;;;;;;5.17;3.47;;;;;;;7.43;nan;-24024.44;5051050;28;20206;-69
2023/03/01 07:58:25;;;;;;;3.57;2.80;;;;;;;7.10;nan;-24015.34;5051024;28;20200;-69
2023/03/01 08:00:50;;;;;;;4.07;2.50;;;;;;;7.40;nan;-24023.59;5051698;28;20163;-68
2023/03/01 08:03:15;;;;;;;3.23;2.43;;;;;;;7.57;nan;-24028.25;5050599;28;20182;-68
2023/03/01 08:05:41;;;;;;;5.50;2.73;;;;;;;7.94;nan;-24038.88;5051006;28;20174;-67
2023/03/01 08:08:06;;;;;;;2.73;2.53;;;;;;;7.83;nan;-24035.78;5050948;28;20178;-70
2023/03/01 08:10:32;;;;;;;6.03;2.30;;;;;;;7.93;nan;-24038.59;5052304;28;20598;-69
2023/03/01 08:12:57;;;;;;;3.83;2.53;;;;;;;7.68;nan;-24031.53;5055196;28;20185;-68
2023/03/01 08:15:22;;;;;;;2.50;1.60;;;;;;;7.34;nan;-24022.03;5055151;28;20241;-69
2023/03/01 08:17:50;;;;;;;3.90;1.93;;;;;;;7.46;nan;-24025.44;5054610;28;20673;-69
2023/03/01 08:20:16;;;;;;;1.63;1.53;;;;;;;7.14;nan;-24016.22;5053697;28;20167;-67
2023/03/01 08:22:42;;;;;;;2.50;1.53;;;;;;;7.26;nan;-24019.75;5053259;28;20180;-70
2023/03/01 08:25:08;;;;;;;1.63;1.53;;;;;;;7.35;nan;-24022.31;5054467;28;20170;-68
2023/03/01 08:27:33;;;;;;;1.70;1.60;;;;;;;7.38;nan;-24023.00;5054757;28;20657;-69
2023/03/01 08:29:58;;;;;;;2.00;1.80;;;;;;;7.14;nan;-24016.22;5054867;28;20177;-68
2023/03/01 08:32:24;;;;;;;2.17;1.90;;;;;;;7.39;nan;-24023.31;5054027;28;20645;-68
2023/03/01 08:34:49;;;;;;;4.17;2.17;;;;;;;7.35;nan;-24022.31;5054836;28;20202;-69
2023/03/01 08:37:15;;;;;;;2.23;2.03;;;;;;;7.56;nan;-24028.13;5054781;28;20251;-67
2023/03/01 08:39:40;;;;;;;2.03;1.83;;;;;;;7.51;nan;-24026.69;5054602;28;20174;-69
2023/03/01 08:42:05;;;;;;;1.80;1.70;;;;;;;7.84;nan;-24035.91;5054592;28;20189;-67
2023/03/01 08:44:31;;;;;;;2.20;1.87;;;;;;;7.86;nan;-24036.63;5053362;28;20257;-69
2023/03/01 08:46:57;;;;;;;2.40;2.13;;;;;;;8.01;nan;-24040.72;5054123;28;20179;-69
2023/03/01 08:49:23;;;;;;;1.97;1.80;;;;;;;8.05;nan;-24041.72;5054585;28;20186;-67
2023/03/01 08:51:49;;;;;;;3.20;1.93;;;;;;;8.06;nan;-24042.00;5054548;28;20174;-68
2023/03/01 08:54:17;;;;;;;1.60;1.50;;;;;;;8.04;nan;-24041.56;5050774;28;20218;-68
2023/03/01 08:56:44;;;;;;;1.97;1.70;;;;;;;7.40;nan;-24023.59;5034212;28;20182;-68
2023/03/01 08:59:11;;;;;;;2.57;1.90;;;;;;;7.97;nan;-24039.59;5033936;28;20250;-69
2023/03/01 09:01:37;;;;;;;2.10;1.83;;;;;;;8.16;nan;-24044.84;5033735;28;20562;-68
2023/03/01 09:04:03;;;;;;;1.70;1.60;;;;;;;7.91;nan;-24038.03;5034645;28;20185;-70
2023/03/01 09:06:32;;;;;;;1.70;1.60;;;;;;;7.74;nan;-24033.22;5034466;28;20166;-69
2023/03/01 09:08:58;;;;;;;1.87;1.40;;;;;;;7.57;nan;-24028.41;5034025;28;20162;-69
2023/03/01 09:11:24;;;;;;;1.43;1.33;;;;;;;7.58;nan;-24028.53;5034090;28;20172;-70
2023/03/01 09:13:50;;;;;;;1.60;1.50;;;;;;;7.44;nan;-24024.72;5034081;28;20653;-69
2023/03/01 09:16:18;;;;;;;1.93;1.60;;;;;;;7.79;nan;-24034.63;5033586;28;20294;-68
2023/03/01 09:18:44;;;;;;;2.30;1.77;;;;;;;7.61;nan;-24029.53;5036766;28;20194;-69
2023/03/01 09:21:15;;;;;;;2.87;1.70;;;;;;;7.57;nan;-24028.25;5041529;28;20269;-69
2023/03/01 09:23:43;;;;;;;2.30;1.70;;;;;;;7.78;nan;-24034.34;5041592;28;20274;-70
2023/03/01 09:26:12;;;;;;;1.40;1.30;;;;;;;7.82;nan;-24035.34;5046614;28;20236;-68
2023/03/01 09:28:38;;;;;;;1.40;1.30;;;;;;;7.45;nan;-24025.00;5053552;28;20178;-69
2023/03/01 09:31:04;;;;;;;1.93;1.30;;;;;;;7.78;nan;-24034.34;5053646;28;20249;-69
2023/03/01 09:33:31;;;;;;;1.50;1.40;;;;;;;7.63;nan;-24029.97;5053754;28;20552;-68
2023/03/01 09:36:02;;;;;;;1.70;1.60;;;;;;;8.16;nan;-24044.84;5053338;28;20348;-69
2023/03/01 09:38:28;;;;;;;3.77;2.07;;;;;;;8.19;nan;-24045.81;5053597;28;20538;-69
2023/03/01 09:40:54;;;;;;;1.50;1.40;;;;;;;7.62;nan;-24029.81;5053629;28;20595;-69
2023/03/01 09:43:31;;;;;;;1.77;1.67;;;;;;;8.00;nan;-24040.59;5051355;28;20222;-69
2023/03/01 09:46:04;;;;;;;1.50;1.40;;;;;;;7.90;nan;-24037.75;5053115;28;20192;-68
2023/03/01 09:48:37;;;;;;;2.03;1.73;;;;;;;8.08;nan;-24042.72;5053210;28;20174;-68
2023/03/01 09:51:12;;;;;;;1.70;1.47;;;;;;;7.88;nan;-24037.03;5053406;28;20167;-69
2023/03/01 09:53:38;;;;;;;2.47;1.93;;;;;;;8.36;nan;-24050.66;5051900;28;20316;-69
2023/03/01 09:56:18;;;;;;;1.70;1.60;;;;;;;8.05;nan;-24041.84;5052925;28;20740;-68
2023/03/01 09:58:52;;;;;;;1.60;1.50;;;;;;;8.23;nan;-24046.81;5052801;28;20214;-70
2023/03/01 10:01:32;;;;;;;1.80;1.70;;;;;;;8.52;nan;-24055.03;5053377;28;20300;-68
2023/03/01 10:04:06;;;;;;;2.27;1.90;;;;;;;8.12;nan;-24043.69;5033775;28;20171;-68
2023/03/01 10:06:31;;;;;;;2.00;1.73;;;;;;;7.76;nan;-24033.78;5033844;28;20166;-68
2023/03/01 10:09:03;;;;;;;1.77;1.67;;;;;;;7.85;nan;-24036.19;5032005;28;20175;-68
2023/03/01 10:11:32;;;;;;;2.57;2.10;;;;;;;8.22;nan;-24046.69;5033197;28;20558;-69
2023/03/01 10:14:33;;;;;;;1.50;1.40;;;;;;;8.19;nan;-24045.69;5032851;28;20168;-68
2023/03/01 10:17:02;;;;;;;2.20;1.73;;;;;;;7.99;nan;-24040.31;5032605;28;20186;-69
2023/03/01 10:19:43;;;;;;;2.60;1.60;;;;;;;8.15;nan;-24044.69;5032945;28;20164;-68
2023/03/01 10:22:18;;;;;;;2.10;1.80;;;;;;;7.92;nan;-24038.19;5032779;28;20198;-67
2023/03/01 10:24:46;;;;;;;2.60;1.97;;;;;;;8.00;nan;-24040.59;5032821;28;20599;-69
2023/03/01 10:27:19;;;;;;;1.77;1.67;;;;;;;7.57;nan;-24028.25;5033100;28;20168;-67
2023/03/01 10:29:50;;;;;;;1.70;1.60;;;;;;;8.10;nan;-24043.13;5031252;28;20178;-69
2023/03/01 10:32:18;;;;;;;1.60;1.50;;;;;;;7.84;nan;-24035.91;5031482;28;20163;-68
2023/03/01 10:34:43;;;;;;;2.03;1.80;;;;;;;8.07;nan;-24042.28;5030924;28;20555;-69
2023/03/01 10:37:09;;;;;;;3.63;2.40;;;;;;;8.14;nan;-24044.41;5032601;28;20171;-69
2023/03/01 10:39:34;;;;;;;2.43;1.90;;;;;;;7.84;nan;-24036.06;5032571;28;20262;-68
2023/03/01 10:42:05;;;;;;;2.17;1.80;;;;;;;7.90;nan;-24037.75;5031224;28;20191;-70
2023/03/01 10:44:44;;;;;;;1.90;1.77;;;;;;;7.86;nan;-24036.47;5032943;28;20198;-68
2023/03/01 10:47:13;;;;;;;1.97;1.80;;;;;;;7.79;nan;-24034.50;5064785;28;20221;-68
2023/03/01 10:49:38;;;;;;;1.80;1.70;;;;;;;7.68;nan;-24031.38;5032610;28;20183;-70
2023/03/01 10:52:19;;;;;;;2.07;1.93;;;;;;;7.35;nan;-24022.16;5032558;28;20646;-69
2023/03/01 10:54:53;;;;;;;1.37;1.27;;;;;;;7.57;nan;-24028.41;5032371;28;20223;-68
2023/03/01 10:57:31;;;;;;;2.70;1.80;;;;;;;7.57;nan;-24028.25;5032575;28;20179;-68
2023/03/01 11:00:24;;;;;;;2.00;1.90;;;;;;;7.38;nan;-24023.16;5032322;28;20167;-70
2023/03/01 11:02:58;;;;;;;1.73;1.63;;;;;;;7.64;nan;-24030.25;5032701;28;20171;-68
2023/03/01 11:05:28;;;;;;;2.13;1.90;;;;;;;7.60;nan;-24029.25;5032348;28;20179;-69
2023/03/01 11:07:59;;;;;;;1.60;1.50;;;;;;;7.57;nan;-24028.41;5033265;28;20262;-68
2023/03/01 11:10:31;;;;;;;2.60;1.60;;;;;;;7.27;nan;-24019.91;5064350;28;20547;-68
2023/03/01 11:13:07;;;;;;;1.77;1.67;;;;;;;7.37;nan;-24022.88;5032291;28;20639;-69
2023/03/01 11:15:33;;;;;;;1.80;1.70;;;;;;;7.56;nan;-24028.13;5031493;28;20725;-69
2023/03/01 11:17:59;;;;;;;1.57;1.47;;;;;;;7.48;nan;-24026.00;5031798;28;20179;-68
2023/03/01 11:20:26;;;;;;;1.60;1.50;;;;;;;7.92;nan;-24038.19;5032371;28;20258;-68
2023/03/01 11:23:15;;;;;;;1.40;1.30;;;;;;;7.90;nan;-24037.63;5031722;28;20202;-68
2023/03/01 11:25:46;;;;;;;1.63;1.53;;;;;;;7.81;nan;-24035.06;5027962;28;20199;-69
2023/03/01 11:28:16;;;;;;;3.47;2.17;;;;;;;7.91;nan;-24037.88;5031552;28;20167;-68
2023/03/01 11:30:51;;;;;;;4.00;1.97;;;;;;;7.92;nan;-24038.31;5031673;28;20182;-69
2023/03/01 11:33:28;;;;;;;1.53;1.43;;;;;;;8.07;nan;-24042.28;5031735;28;20221;-68
2023/03/01 11:36:02;;;;;;;2.37;2.03;;;;;;;8.34;nan;-24049.94;5031535;28;20685;-70
2023/03/01 11:38:30;;;;;;;2.47;1.97;;;;;;;8.21;nan;-24046.25;5031090;28;20646;-68
2023/03/01 11:41:07;;;;;;;1.97;1.77;;;;;;;7.82;nan;-24035.47;5031753;28;20262;-67
2023/03/01 11:44:01;;;;;;;2.53;2.33;;;;;;;8.24;nan;-24047.09;5031510;28;20175;-68
2023/03/01 11:46:29;;;;;;;2.97;1.97;;;;;;;8.29;nan;-24048.50;5030822;28;20520;-69
2023/03/01 11:49:06;;;;;;;3.20;2.40;;;;;;;8.36;nan;-24050.50;5030837;28;20183;-69
2023/03/01 11:51:50;;;;;;;2.43;1.63;;;;;;;8.39;nan;-24051.50;5031169;28;20237;-69
2023/03/01 11:54:40;;;;;;;1.83;1.40;;;;;;;8.47;nan;-24053.63;5031460;28;20241;-68
2023/03/01 11:57:27;;;;;;;3.73;2.27;;;;;;;8.37;nan;-24050.78;5030931;28;20187;-69
2023/03/01 12:00:07;;;;;;;2.73;2.27;;;;;;;8.38;nan;-24051.06;5031224;28;20286;-70